createdAt,value
2019-04-25T00:02:15.785Z,99.90
2019-04-25T00:04:45.533Z,99.90
2019-04-25T00:07:15.299Z,99.90
2019-04-25T00:09:51.725Z,99.90
2019-04-25T00:12:22.306Z,99.90
2019-04-25T00:14:53.662Z,99.90
2019-04-25T00:17:24.176Z,99.90
2019-04-25T00:19:54.224Z,99.90
2019-04-25T00:22:25.696Z,99.90
2019-04-25T00:25:12.891Z,99.90
2019-04-25T00:27:32.865Z,99.90
2019-04-25T00:30:02.607Z,99.90
2019-04-25T00:32:33.597Z,99.90
2019-04-25T00:35:03.379Z,99.90
2019-04-25T00:37:33.056Z,99.90
2019-04-25T00:40:02.847Z,99.90
2019-04-25T00:42:32.741Z,99.90
2019-04-25T00:45:02.525Z,99.90
2019-04-25T00:47:32.309Z,99.90
2019-04-25T00:50:02.423Z,99.90
2019-04-25T00:52:35.156Z,99.90
2019-04-25T00:55:05.943Z,99.90
2019-04-25T00:57:39.035Z,99.90
2019-04-25T01:00:22.207Z,99.90
2019-04-25T01:02:54.577Z,99.90
2019-04-25T01:05:24.340Z,99.90
2019-04-25T01:07:54.418Z,99.90
2019-04-25T01:10:24.296Z,99.90
2019-04-25T01:12:54.516Z,99.90
2019-04-25T01:15:24.732Z,99.90
2019-04-25T01:17:55.133Z,99.90
2019-04-25T01:20:26.112Z,99.90
2019-04-25T01:22:57.554Z,99.90
2019-04-25T01:25:38.575Z,99.90
2019-04-25T01:27:59.695Z,99.90
2019-04-25T01:30:29.542Z,99.90
2019-04-25T01:32:59.319Z,99.90
2019-04-25T01:35:33.519Z,99.90
2019-04-25T01:38:07.927Z,99.90
2019-04-25T01:40:49.396Z,99.90
2019-04-25T01:43:20.840Z,99.90
2019-04-25T01:45:51.719Z,99.90
2019-04-25T01:48:23.370Z,99.90
2019-04-25T01:50:54.551Z,99.90
2019-04-25T01:53:24.646Z,99.90
2019-04-25T01:56:01.613Z,99.90
2019-04-25T01:58:25.767Z,99.90
2019-04-25T02:00:56.384Z,99.90
2019-04-25T02:03:27.366Z,99.90
2019-04-25T02:05:57.402Z,99.90
2019-04-25T02:08:27.165Z,99.90
2019-04-25T02:10:58.974Z,99.90
2019-04-25T02:13:28.759Z,99.90
2019-04-25T02:15:59.198Z,99.90
2019-04-25T02:18:28.998Z,99.90
2019-04-25T02:21:00.289Z,99.90
2019-04-25T02:23:30.197Z,99.90
2019-04-25T02:26:12.656Z,99.90
2019-04-25T02:28:31.660Z,99.90
2019-04-25T02:31:03.800Z,99.90
2019-04-25T02:33:34.106Z,99.90
2019-04-25T02:36:08.622Z,99.90
2019-04-25T02:38:35.599Z,99.90
2019-04-25T02:41:08.929Z,99.90
2019-04-25T02:43:37.865Z,99.90
2019-04-25T02:46:11.964Z,99.90
2019-04-25T02:49:02.393Z,99.90
2019-04-25T02:51:34.803Z,99.90
2019-04-25T02:54:07.569Z,99.90
2019-04-25T02:56:38.669Z,99.90
2019-04-25T02:59:08.861Z,99.90
2019-04-25T03:01:38.480Z,99.90
2019-04-25T03:04:11.126Z,99.90
2019-04-25T03:06:39.612Z,99.90
2019-04-25T03:09:11.555Z,99.90
2019-04-25T03:11:41.328Z,99.90
2019-04-25T03:14:11.007Z,99.90
2019-04-25T03:17:00.414Z,99.90
2019-04-25T03:19:41.179Z,99.90
2019-04-25T03:22:18.330Z,99.90
2019-04-25T03:24:48.111Z,99.90
2019-04-25T03:27:19.622Z,99.90
2019-04-25T03:29:49.329Z,99.90
2019-04-25T03:32:20.152Z,99.90
2019-04-25T03:34:50.175Z,99.90
2019-04-25T03:37:19.966Z,99.90
2019-04-25T03:40:04.482Z,99.90
2019-04-25T03:42:33.911Z,99.90
2019-04-25T03:45:05.852Z,99.90
2019-04-25T03:47:35.162Z,99.90
2019-04-25T03:50:07.968Z,99.90
2019-04-25T03:52:37.862Z,99.90
2019-04-25T03:55:08.601Z,99.90
2019-04-25T03:57:38.472Z,99.90
2019-04-25T04:00:08.744Z,99.90
2019-04-25T04:02:38.529Z,99.90
2019-04-25T04:05:08.648Z,99.90
2019-04-25T04:07:39.363Z,99.90
2019-04-25T04:10:09.950Z,99.90
2019-04-25T04:12:39.751Z,99.90
2019-04-25T04:15:10.415Z,99.90
2019-04-25T04:17:43.700Z,99.90
2019-04-25T04:20:15.919Z,99.90
2019-04-25T04:22:53.547Z,99.90
2019-04-25T04:25:23.647Z,99.90
2019-04-25T04:27:53.820Z,99.90
2019-04-25T04:30:24.169Z,99.90
2019-04-25T04:32:53.990Z,99.90
2019-04-25T04:35:23.791Z,99.90
2019-04-25T04:37:54.213Z,99.90
2019-04-25T04:40:24.369Z,99.90
2019-04-25T04:42:54.291Z,99.90
2019-04-25T04:45:24.075Z,99.90
2019-04-25T04:47:53.805Z,99.90
2019-04-25T04:50:25.231Z,99.90
2019-04-25T04:52:54.867Z,99.90
2019-04-25T04:55:24.548Z,99.90
2019-04-25T04:57:54.344Z,99.90
2019-04-25T05:00:25.871Z,99.90
2019-04-25T05:03:00.201Z,99.90
2019-04-25T05:05:34.811Z,99.90
2019-04-25T05:08:08.759Z,99.90
2019-04-25T05:10:38.510Z,99.90
2019-04-25T05:13:08.343Z,99.90
2019-04-25T05:15:38.126Z,99.90
2019-04-25T05:18:07.865Z,99.90
2019-04-25T05:20:37.668Z,99.90
2019-04-25T05:23:08.918Z,99.90
2019-04-25T05:25:38.798Z,99.90
2019-04-25T05:28:08.542Z,99.90
2019-04-25T05:30:45.972Z,99.90
2019-04-25T05:33:18.637Z,99.90
2019-04-25T05:35:46.946Z,99.90
2019-04-25T05:38:17.617Z,99.90
2019-04-25T05:40:53.811Z,99.90
2019-04-25T05:43:26.530Z,99.90
2019-04-25T05:45:57.302Z,99.90
2019-04-25T05:48:27.159Z,99.90
2019-04-25T05:50:56.826Z,99.90
2019-04-25T05:53:28.399Z,99.90
2019-04-25T05:56:18.072Z,99.90
2019-04-25T05:58:47.968Z,99.90
2019-04-25T06:01:18.841Z,99.90
2019-04-25T06:03:48.600Z,99.90
2019-04-25T06:06:19.190Z,99.90
2019-04-25T06:09:06.961Z,99.90
2019-04-25T06:11:53.447Z,99.90
2019-04-25T06:14:24.023Z,99.90
2019-04-25T06:16:56.480Z,99.90
2019-04-25T06:19:40.187Z,99.90
2019-04-25T06:22:15.149Z,99.90
2019-04-25T06:24:52.156Z,99.90
2019-04-25T06:27:24.334Z,99.90
2019-04-25T06:29:59.052Z,99.90
2019-04-25T06:32:30.429Z,99.90
2019-04-25T06:35:00.044Z,99.90
2019-04-25T06:37:43.743Z,99.90
2019-04-25T06:40:14.380Z,99.90
2019-04-25T06:42:46.593Z,99.90
2019-04-25T06:45:25.294Z,99.90
2019-04-25T06:48:04.088Z,99.90
2019-04-25T06:50:35.297Z,99.90
2019-04-25T06:53:05.292Z,99.90
2019-04-25T06:55:35.118Z,99.90
2019-04-25T06:58:12.022Z,99.90
2019-04-25T07:00:41.250Z,99.90
2019-04-25T07:03:07.571Z,99.90
2019-04-25T07:05:40.527Z,99.90
2019-04-25T07:08:08.802Z,99.90
2019-04-25T07:10:38.587Z,99.90
2019-04-25T07:13:08.392Z,99.90
2019-04-25T07:15:40.077Z,99.90
2019-04-25T07:18:09.842Z,99.90
2019-04-25T07:20:40.767Z,99.90
2019-04-25T07:23:10.564Z,99.90
2019-04-25T07:25:41.890Z,99.90
2019-04-25T07:31:25.072Z,99.90
2019-04-25T07:33:59.123Z,99.90
2019-04-25T07:36:28.871Z,99.90
2019-04-25T07:39:09.751Z,99.90
2019-04-25T07:41:34.478Z,99.90
2019-04-25T07:44:04.300Z,99.90
2019-04-25T07:46:38.206Z,99.90
2019-04-25T07:49:05.756Z,99.90
2019-04-25T07:51:36.683Z,99.90
2019-04-25T07:54:07.250Z,99.90
2019-04-25T07:56:37.969Z,99.90
2019-04-25T07:59:08.050Z,99.90
2019-04-25T08:01:39.114Z,99.90
2019-04-25T08:04:09.064Z,99.90
2019-04-25T08:06:38.951Z,99.90
2019-04-25T08:09:10.856Z,99.90
2019-04-25T08:11:41.019Z,99.90
2019-04-25T08:14:15.535Z,99.90
2019-04-25T08:16:47.063Z,99.90
2019-04-25T08:19:16.836Z,99.90
2019-04-25T08:21:46.682Z,99.90
2019-04-25T08:24:17.457Z,99.90
2019-04-25T08:26:47.199Z,99.90
2019-04-25T08:29:16.915Z,99.90
2019-04-25T08:31:46.585Z,99.90
2019-04-25T08:34:16.346Z,99.90
2019-04-25T08:36:46.110Z,99.90
2019-04-25T08:39:16.430Z,99.90
2019-04-25T08:41:46.213Z,99.90
2019-04-25T08:44:15.981Z,99.90
2019-04-25T08:46:48.576Z,99.90
2019-04-25T08:49:18.741Z,99.90
2019-04-25T08:51:50.094Z,99.90
2019-04-25T08:54:42.177Z,99.90
2019-04-25T08:57:15.245Z,99.70
2019-04-25T08:59:52.352Z,99.70
2019-04-25T09:02:19.835Z,99.60
2019-04-25T09:05:07.470Z,99.40
2019-04-25T09:07:38.204Z,99.60
2019-04-25T09:10:08.896Z,99.40
2019-04-25T09:12:39.513Z,99.50
2019-04-25T09:15:09.724Z,99.70
2019-04-25T09:17:39.502Z,99.00
2019-04-25T09:20:09.681Z,98.70
2019-04-25T09:22:39.949Z,98.50
2019-04-25T09:25:10.354Z,98.50
2019-04-25T09:27:41.691Z,98.10
2019-04-25T09:30:14.214Z,98.50
2019-04-25T09:32:44.623Z,98.30
2019-04-25T09:35:14.583Z,98.20
2019-04-25T09:37:45.348Z,97.20
2019-04-25T09:40:17.059Z,97.20
2019-04-25T09:42:47.132Z,97.50
2019-04-25T09:45:31.303Z,97.30
2019-04-25T09:48:15.259Z,97.20
2019-04-25T09:50:46.616Z,96.10
2019-04-25T09:53:23.556Z,95.70
2019-04-25T09:56:10.474Z,96.30
2019-04-25T09:58:56.760Z,95.90
2019-04-25T10:01:27.633Z,95.90
2019-04-25T10:03:57.425Z,95.90
2019-04-25T10:06:27.210Z,95.60
2019-04-25T10:08:56.992Z,95.50
2019-04-25T10:11:26.922Z,95.30
2019-04-25T10:14:09.644Z,95.30
2019-04-25T10:16:40.219Z,94.60
2019-04-25T10:19:10.048Z,94.30
2019-04-25T10:21:39.803Z,94.00
2019-04-25T10:24:09.580Z,93.80
2019-04-25T10:26:39.838Z,93.90
2019-04-25T10:29:09.733Z,94.00
2019-04-25T10:31:39.864Z,94.00
2019-04-25T10:34:14.068Z,93.20
2019-04-25T10:36:46.826Z,94.10
2019-04-25T10:39:16.363Z,93.90
2019-04-25T10:41:46.828Z,93.40
2019-04-25T10:44:17.609Z,92.60
2019-04-25T10:46:48.508Z,92.30
2019-04-25T10:49:18.226Z,93.40
2019-04-25T10:51:48.064Z,93.60
2019-04-25T10:54:17.815Z,93.20
2019-04-25T10:56:48.373Z,92.80
2019-04-25T10:59:18.212Z,93.10
2019-04-25T11:01:48.907Z,94.10
2019-04-25T11:04:20.634Z,94.90
2019-04-25T11:06:50.411Z,95.40
2019-04-25T11:09:25.195Z,95.60
2019-04-25T11:11:55.704Z,96.10
2019-04-25T11:14:27.652Z,96.20
2019-04-25T11:16:57.618Z,96.10
2019-04-25T11:19:27.593Z,96.50
2019-04-25T11:21:57.391Z,96.50
2019-04-25T11:24:27.197Z,96.40
2019-04-25T11:26:57.151Z,96.20
2019-04-25T11:29:27.014Z,95.80
2019-04-25T11:31:56.849Z,95.70
2019-04-25T11:34:27.618Z,96.10
2019-04-25T11:36:57.844Z,96.10
2019-04-25T11:39:38.201Z,95.70
2019-04-25T11:42:27.437Z,94.90
2019-04-25T11:44:57.214Z,94.90
2019-04-25T11:47:27.325Z,94.90
2019-04-25T11:49:57.071Z,95.20
2019-04-25T11:52:29.979Z,95.30
2019-04-25T11:54:58.246Z,94.90
2019-04-25T11:57:28.029Z,94.70
2019-04-25T11:59:57.733Z,94.50
2019-04-25T12:02:27.897Z,95.00
2019-04-25T12:04:57.613Z,94.40
2019-04-25T12:07:27.559Z,94.50
2019-04-25T12:09:57.276Z,94.30
2019-04-25T12:12:26.997Z,94.20
2019-04-25T12:14:56.773Z,94.70
2019-04-25T12:17:26.554Z,94.40
2019-04-25T12:19:56.275Z,94.20
2019-04-25T12:22:26.175Z,94.00
2019-04-25T12:24:55.927Z,93.50
2019-04-25T12:27:26.110Z,93.60
2019-04-25T12:29:55.844Z,93.50
2019-04-25T12:32:25.556Z,93.40
2019-04-25T12:34:56.110Z,93.10
2019-04-25T12:37:27.122Z,92.90
2019-04-25T12:39:56.883Z,92.90
2019-04-25T12:42:27.128Z,93.30
2019-04-25T12:45:01.211Z,93.60
2019-04-25T12:47:34.254Z,93.00
2019-04-25T12:50:05.385Z,93.40
2019-04-25T12:52:35.236Z,93.20
2019-04-25T12:55:06.672Z,93.00
2019-04-25T12:57:36.460Z,92.90
2019-04-25T13:00:07.041Z,92.10
2019-04-25T13:02:36.861Z,91.70
2019-04-25T13:05:07.634Z,92.70
2019-04-25T13:07:38.970Z,92.40
2019-04-25T13:10:09.302Z,92.00
2019-04-25T13:12:39.086Z,92.00
2019-04-25T13:15:09.830Z,91.10
2019-04-25T13:17:40.043Z,91.20
2019-04-25T13:20:09.988Z,91.00
2019-04-25T13:22:39.812Z,91.00
2019-04-25T13:25:11.063Z,90.10
2019-04-25T13:27:45.268Z,90.90
2019-04-25T13:30:16.887Z,90.70
2019-04-25T13:32:48.347Z,91.20
2019-04-25T13:35:19.684Z,91.50
2019-04-25T13:37:49.481Z,91.10
2019-04-25T13:40:19.247Z,91.40
2019-04-25T13:42:49.075Z,91.40
2019-04-25T13:45:18.870Z,91.00
2019-04-25T13:47:48.615Z,91.00
2019-04-25T13:50:18.500Z,91.10
2019-04-25T13:52:48.251Z,90.70
2019-04-25T13:55:18.022Z,90.90
2019-04-25T13:57:48.511Z,90.60
2019-04-25T14:00:20.148Z,90.50
2019-04-25T14:02:50.114Z,90.70
2019-04-25T14:05:21.138Z,90.00
2019-04-25T14:08:10.849Z,90.20
2019-04-25T14:10:40.612Z,89.70
2019-04-25T14:13:10.996Z,89.60
2019-04-25T14:15:43.126Z,90.40
2019-04-25T14:18:18.008Z,90.50
2019-04-25T14:20:49.511Z,90.60
2019-04-25T14:23:19.513Z,90.80
2019-04-25T14:25:49.292Z,91.00
2019-04-25T14:28:19.098Z,91.10
2019-04-25T14:30:48.900Z,91.20
2019-04-25T14:33:18.640Z,91.50
2019-04-25T14:35:48.437Z,91.90
2019-04-25T14:38:18.256Z,92.30
2019-04-25T14:40:49.108Z,92.50
2019-04-25T14:43:18.943Z,92.90
2019-04-25T14:45:48.761Z,93.30
2019-04-25T14:48:18.711Z,93.60
2019-04-25T14:50:48.460Z,93.90
2019-04-25T14:53:18.250Z,94.40
2019-04-25T14:55:52.472Z,94.90
2019-04-25T14:58:24.065Z,95.60
2019-04-25T15:00:53.919Z,95.70
2019-04-25T15:03:24.051Z,96.00
2019-04-25T15:05:53.904Z,96.20
2019-04-25T15:08:24.900Z,96.90
2019-04-25T15:10:55.944Z,98.80
2019-04-25T15:13:25.892Z,99.90
2019-04-25T15:15:55.618Z,99.90
2019-04-25T15:18:25.550Z,99.90
2019-04-25T15:20:55.267Z,99.90
2019-04-25T15:23:25.419Z,99.90
2019-04-25T15:25:55.335Z,99.90
2019-04-25T15:28:25.123Z,99.90
2019-04-25T15:30:55.008Z,99.90
2019-04-25T15:33:25.194Z,99.90
2019-04-25T15:35:59.640Z,99.90
2019-04-25T15:38:47.430Z,99.90
2019-04-25T15:41:20.097Z,99.90
2019-04-25T15:43:51.454Z,99.90
2019-04-25T15:46:26.091Z,99.90
2019-04-25T15:48:55.844Z,99.90
2019-04-25T15:51:25.609Z,99.90
2019-04-25T15:53:55.281Z,99.90
2019-04-25T15:56:25.192Z,99.90
2019-04-25T15:58:54.968Z,99.90
2019-04-25T16:01:26.398Z,99.90
2019-04-25T16:03:56.495Z,99.90
2019-04-25T16:06:27.778Z,99.90
2019-04-25T16:08:57.560Z,99.90
2019-04-25T16:11:28.027Z,99.90
2019-04-25T16:13:58.187Z,99.90
2019-04-25T16:16:28.292Z,99.90
2019-04-25T16:18:58.440Z,99.90
2019-04-25T16:21:29.047Z,99.90
2019-04-25T16:23:59.312Z,99.90
2019-04-25T16:26:29.557Z,99.90
2019-04-25T16:28:59.585Z,99.90
2019-04-25T16:31:29.545Z,99.90
2019-04-25T16:34:00.227Z,99.90
2019-04-25T16:36:30.771Z,99.90
2019-04-25T16:39:00.818Z,99.90
2019-04-25T16:41:32.152Z,99.90
2019-04-25T16:44:03.461Z,99.90
2019-04-25T16:46:34.202Z,99.90
2019-04-25T16:49:04.004Z,99.90
2019-04-25T16:51:33.740Z,99.90
2019-04-25T16:54:03.779Z,99.90
2019-04-25T16:56:33.474Z,99.90
2019-04-25T16:59:03.236Z,99.90
2019-04-25T17:01:33.765Z,99.90
2019-04-25T17:04:03.610Z,99.90
2019-04-25T17:06:33.882Z,99.90
2019-04-25T17:09:05.860Z,99.90
2019-04-25T17:11:37.151Z,99.90
2019-04-25T17:14:08.496Z,99.90
2019-04-25T17:16:40.858Z,99.90
2019-04-25T17:19:19.250Z,99.90
2019-04-25T17:21:49.086Z,99.90
2019-04-25T17:24:18.851Z,99.90
2019-04-25T17:26:48.673Z,99.90
2019-04-25T17:29:20.216Z,99.90
2019-04-25T17:31:54.286Z,99.90
2019-04-25T17:34:41.034Z,99.90
2019-04-25T17:37:12.676Z,99.90
2019-04-25T17:39:43.982Z,99.90
2019-04-25T17:42:13.751Z,99.90
2019-04-25T17:44:43.584Z,99.90
2019-04-25T17:47:13.355Z,99.90
2019-04-25T17:49:43.056Z,99.90
2019-04-25T17:52:12.794Z,99.90
2019-04-25T17:54:43.062Z,99.90
2019-04-25T17:57:13.095Z,99.90
2019-04-25T17:59:43.436Z,99.90
2019-04-25T18:02:13.551Z,99.90
2019-04-25T18:04:43.329Z,99.90
2019-04-25T18:07:13.193Z,99.90
2019-04-25T18:09:43.516Z,99.90
2019-04-25T18:12:13.350Z,99.90
2019-04-25T18:14:43.227Z,99.90
2019-04-25T18:17:12.984Z,99.90
2019-04-25T18:19:44.809Z,99.90
2019-04-25T18:22:21.971Z,99.90
2019-04-25T18:24:59.178Z,99.90
2019-04-25T18:27:37.578Z,99.90
2019-04-25T18:30:08.077Z,99.90
2019-04-25T18:32:39.398Z,99.90
2019-04-25T18:35:10.865Z,99.90
2019-04-25T18:41:01.075Z,99.90
2019-04-25T18:43:32.394Z,99.90
2019-04-25T18:46:06.171Z,99.90
2019-04-25T18:48:55.220Z,99.90
2019-04-25T18:51:24.944Z,99.90
2019-04-25T18:54:11.399Z,99.90
2019-04-25T18:56:43.234Z,99.90
2019-04-25T18:59:20.624Z,99.90
2019-04-25T19:01:52.062Z,99.90
2019-04-25T19:04:29.107Z,99.90
2019-04-25T19:06:58.891Z,99.90
2019-04-25T19:09:28.717Z,99.90
2019-04-25T19:11:58.519Z,99.90
2019-04-25T19:14:28.317Z,99.90
2019-04-25T19:16:58.098Z,99.90
2019-04-25T19:19:27.864Z,99.90
2019-04-25T19:21:57.676Z,99.90
2019-04-25T19:24:27.441Z,99.90
2019-04-25T19:26:57.526Z,99.90
2019-04-25T19:29:27.414Z,99.90
2019-04-25T19:31:58.348Z,99.90
2019-04-25T19:34:28.296Z,99.90
2019-04-25T19:36:58.147Z,99.90
2019-04-25T19:39:29.518Z,99.90
2019-04-25T19:42:10.002Z,99.90
2019-04-25T19:44:41.048Z,99.90
2019-04-25T19:47:10.953Z,99.90
2019-04-25T19:49:41.650Z,99.90
2019-04-25T19:52:11.573Z,99.90
2019-04-25T19:54:41.943Z,99.90
2019-04-25T19:57:12.312Z,99.90
2019-04-25T19:59:43.131Z,99.90
2019-04-25T20:02:14.826Z,99.90
2019-04-25T20:04:46.805Z,99.90
2019-04-25T20:07:23.982Z,99.90
2019-04-25T20:12:51.627Z,99.90
2019-04-25T20:15:20.071Z,99.90
2019-04-25T20:17:49.971Z,99.90
2019-04-25T20:20:19.806Z,99.90
2019-04-25T20:22:50.245Z,99.90
2019-04-25T20:25:20.161Z,99.90
2019-04-25T20:27:50.765Z,99.90
2019-04-25T20:30:23.310Z,99.90
2019-04-25T20:32:53.485Z,99.90
2019-04-25T20:35:23.360Z,99.90
2019-04-25T20:37:53.431Z,99.90
2019-04-25T20:40:23.523Z,99.90
2019-04-25T20:42:54.159Z,99.90
2019-04-25T20:45:24.515Z,99.90
2019-04-25T20:47:54.769Z,99.90
2019-04-25T20:50:25.764Z,99.90
2019-04-25T20:52:57.323Z,99.90
2019-04-25T20:55:27.248Z,99.90
2019-04-25T20:57:57.833Z,99.90
2019-04-25T21:00:44.075Z,99.90
2019-04-25T21:03:14.084Z,99.90
2019-04-25T21:05:45.034Z,99.90
2019-04-25T21:08:15.891Z,99.90
2019-04-25T21:10:45.756Z,99.90
2019-04-25T21:13:17.107Z,99.90
2019-04-25T21:15:58.283Z,99.90
2019-04-25T21:18:35.946Z,99.90
2019-04-25T21:21:05.823Z,99.90
2019-04-25T21:23:35.642Z,99.90
2019-04-25T21:26:05.536Z,99.90
2019-04-25T21:28:35.372Z,99.90
2019-04-25T21:31:05.152Z,99.90
2019-04-25T21:33:34.926Z,99.90
2019-04-25T21:36:05.369Z,99.90
2019-04-25T21:38:35.464Z,99.90
2019-04-25T21:41:23.917Z,99.90
2019-04-25T21:43:56.098Z,99.90
2019-04-25T21:46:26.146Z,99.90
2019-04-25T21:48:56.865Z,99.90
2019-04-25T21:51:32.678Z,99.90
2019-04-25T21:54:03.638Z,99.90
2019-04-25T21:56:33.882Z,99.90
2019-04-25T21:59:04.111Z,99.90
2019-04-25T22:01:38.683Z,99.90
2019-04-25T22:04:08.422Z,99.90
2019-04-25T22:06:38.613Z,99.90
2019-04-25T22:09:18.426Z,99.90
2019-04-25T22:11:48.582Z,99.90
2019-04-25T22:14:18.587Z,99.90
2019-04-25T22:16:48.668Z,99.90
2019-04-25T22:19:18.684Z,99.90
2019-04-25T22:21:48.837Z,99.90
2019-04-25T22:24:18.598Z,99.90
2019-04-25T22:26:50.326Z,99.90
2019-04-25T22:29:20.124Z,99.90
2019-04-25T22:31:55.730Z,99.90
2019-04-25T22:34:31.247Z,99.90
2019-04-25T22:37:02.026Z,99.90
2019-04-25T22:39:31.991Z,99.90
2019-04-25T22:42:02.095Z,99.90
2019-04-25T22:44:32.159Z,99.90
2019-04-25T22:47:02.382Z,99.90
2019-04-25T22:49:32.146Z,99.90
2019-04-25T22:52:03.098Z,99.90
2019-04-25T22:54:34.218Z,99.90
2019-04-25T22:57:04.272Z,99.90
2019-04-25T22:59:34.380Z,99.90
2019-04-25T23:02:05.691Z,99.90
2019-04-25T23:04:47.496Z,99.90
2019-04-25T23:07:18.133Z,99.90
2019-04-25T23:09:49.820Z,99.90
2019-04-25T23:12:19.760Z,99.90
2019-04-25T23:14:49.544Z,99.90
2019-04-25T23:17:19.314Z,99.90
2019-04-25T23:19:49.310Z,99.90
2019-04-25T23:22:19.077Z,99.90
2019-04-25T23:24:53.768Z,99.90
2019-04-25T23:27:31.013Z,99.90
2019-04-25T23:30:00.842Z,99.90
2019-04-25T23:32:31.186Z,99.90
2019-04-25T23:35:00.895Z,99.90
2019-04-25T23:37:30.650Z,99.90
2019-04-25T23:40:00.428Z,99.90
2019-04-25T23:42:30.140Z,99.90
2019-04-25T23:45:00.194Z,99.90
2019-04-25T23:47:29.918Z,99.90
2019-04-25T23:49:59.993Z,99.90
2019-04-25T23:52:29.756Z,99.90
2019-04-25T23:54:59.446Z,99.90
2019-04-25T23:57:29.248Z,99.90
2019-04-25T23:59:58.952Z,99.90
